Aviation Digital Data Service (ADDS)

Output produced by METARs form (1018 UTC 01 October 2016)
found at http://aviationweather.gov/adds/metars/
 
KGSP 010521Z 0106/0206 VRB02KT P6SM SKC